Station Historical Data
Daily Summary for March 4, 2017 Units:  English    Metric   Both
« Previous Day
Next Day »
Daily Weekly Monthly Yearly Custom
  High: Low: Average:
Temperature: 20.5 °F 10.5 °F 17 °F
Dew Point: 14.5 °F -1.0 °F 6.3 °F
Humidity: 84% 40% 63%
Wind Speed: 10.0mph 0.0mph 3.8mph
Wind Gust: 17.0mph - -
Wind- - WSW
Pressure: 30.75 in 30.53 in -
Precipitation: 0.00 in    
Historical Graphs
 
 
Tabular Data for March 4, 2017
Time Temperature Dew Point Pressure Wind Wind Speed Wind Gust Humidity Rainfall Rate (Hourly)
00:04 18.4 °F 8.9 °F 30.54 in WNW 4.0 mph 9.0 mph 66% 0.00 in
00:09 18.5 °F 9.0 °F 30.54 in West 4.0 mph 9.0 mph 66% 0.00 in
00:14 18.6 °F 9.1 °F 30.55 in WNW 2.0 mph 6.0 mph 66% 0.00 in
00:19 18.7 °F 9.2 °F 30.54 in Calm   6.0 mph 66% 0.00 in
00:24 18.7 °F 9.6 °F 30.54 in NW 3.0 mph 6.0 mph 67% 0.00 in
00:29 18.7 °F 9.9 °F 30.54 in NW 5.0 mph 6.0 mph 68% 0.00 in
00:34 18.6 °F 9.8 °F 30.54 in NW 3.0 mph 7.0 mph 68% 0.00 in
00:39 18.7 °F 9.9 °F 30.54 in West 2.0 mph 8.0 mph 68% 0.00 in
00:44 18.6 °F 9.8 °F 30.55 in WNW 5.0 mph 6.0 mph 68% 0.00 in
00:49 18.4 °F 10.2 °F 30.55 in West 5.0 mph 8.0 mph 70% 0.00 in
00:54 18.4 °F 10.2 °F 30.54 in West 4.0 mph 8.0 mph 70% 0.00 in
00:59 18.4 °F 10.2 °F 30.54 in West 3.0 mph 7.0 mph 70% 0.00 in
01:04 18.5 °F 10.3 °F 30.54 in West 4.0 mph 8.0 mph 70% 0.00 in
01:09 18.5 °F 10.3 °F 30.54 in WNW 2.0 mph 8.0 mph 70% 0.00 in
01:14 18.5 °F 10.3 °F 30.54 in West 5.0 mph 7.0 mph 70% 0.00 in
01:19 18.5 °F 10.3 °F 30.54 in West 5.0 mph 7.0 mph 70% 0.00 in
01:24 18.5 °F 10.3 °F 30.54 in West 4.0 mph 8.0 mph 70% 0.00 in
01:29 18.6 °F 10.4 °F 30.54 in West 4.0 mph 8.0 mph 70% 0.00 in
01:34 18.6 °F 10.4 °F 30.54 in West 5.0 mph 8.0 mph 70% 0.00 in
01:39 18.6 °F 10.4 °F 30.54 in West 5.0 mph 8.0 mph 70% 0.00 in
01:44 18.7 °F 10.5 °F 30.54 in West 3.0 mph 8.0 mph 70% 0.00 in
01:49 18.8 °F 10.6 °F 30.54 in West 2.0 mph 8.0 mph 70% 0.00 in
01:54 18.8 °F 10.3 °F 30.54 in WSW 6.0 mph 10.0 mph 69% 0.00 in
01:59 18.8 °F 10.6 °F 30.54 in West 4.0 mph 10.0 mph 70% 0.00 in
02:04 18.8 °F 10.6 °F 30.54 in West 5.0 mph 9.0 mph 70% 0.00 in
02:09 18.8 °F 10.6 °F 30.54 in West 4.0 mph 9.0 mph 70% 0.00 in
02:14 18.9 °F 10.7 °F 30.53 in West 3.0 mph 7.0 mph 70% 0.00 in
02:19 18.9 °F 10.7 °F 30.53 in West 3.0 mph 7.0 mph 70% 0.00 in
02:24 19.0 °F 10.8 °F 30.53 in West 5.0 mph 8.0 mph 70% 0.00 in
02:29 19.0 °F 11.1 °F 30.53 in NNW 2.0 mph 9.0 mph 71% 0.00 in
02:34 18.9 °F 11.0 °F 30.53 in West 4.0 mph 8.0 mph 71% 0.00 in
02:39 18.9 °F 11.0 °F 30.54 in West 4.0 mph 9.0 mph 71% 0.00 in
02:44 19.0 °F 11.5 °F 30.53 in WSW 1.0 mph 9.0 mph 72% 0.00 in
02:49 19.0 °F 11.5 °F 30.53 in WSW 7.0 mph 11.0 mph 72% 0.00 in
02:54 19.0 °F 11.5 °F 30.53 in WNW 3.0 mph 7.0 mph 72% 0.00 in
02:59 19.1 °F 11.9 °F 30.53 in West 5.0 mph 8.0 mph 73% 0.00 in
03:04 19.1 °F 11.9 °F 30.53 in West 2.0 mph 10.0 mph 73% 0.00 in
03:09 19.0 °F 11.8 °F 30.54 in West 5.0 mph 11.0 mph 73% 0.00 in
03:14 19.0 °F 12.1 °F 30.54 in West 5.0 mph 11.0 mph 74% 0.00 in
03:19 19.0 °F 12.1 °F 30.53 in West 6.0 mph 14.0 mph 74% 0.00 in
03:24 19.1 °F 12.2 °F 30.54 in West 6.0 mph 14.0 mph 74% 0.00 in
03:29 19.1 °F 12.2 °F 30.54 in West 6.0 mph 13.0 mph 74% 0.00 in
03:34 19.0 °F 12.1 °F 30.54 in WNW 8.0 mph 11.0 mph 74% 0.00 in
03:39 19.0 °F 12.4 °F 30.54 in West 8.0 mph 11.0 mph 75% 0.00 in
03:44 19.1 °F 12.5 °F 30.54 in WSW 5.0 mph 14.0 mph 75% 0.00 in
03:49 19.3 °F 12.7 °F 30.55 in WNW 5.0 mph 14.0 mph 75% 0.00 in
03:54 19.1 °F 13.1 °F 30.55 in West 4.0 mph 10.0 mph 77% 0.00 in
03:59 18.9 °F 13.7 °F 30.55 in West 5.0 mph 12.0 mph 80% 0.00 in
04:04 18.7 °F 13.8 °F 30.55 in West 8.0 mph 11.0 mph 81% 0.00 in
04:09 18.6 °F 14.0 °F 30.55 in West 8.0 mph 11.0 mph 82% 0.00 in
04:14 18.7 °F 14.1 °F 30.55 in West 6.0 mph 13.0 mph 82% 0.00 in
04:19 18.8 °F 14.2 °F 30.55 in West 6.0 mph 13.0 mph 82% 0.00 in
04:24 18.7 °F 14.4 °F 30.56 in West 6.0 mph 12.0 mph 83% 0.00 in
04:29 18.5 °F 14.2 °F 30.56 in WNW 5.0 mph 11.0 mph 83% 0.00 in
04:34 18.5 °F 14.5 °F 30.56 in West 5.0 mph 11.0 mph 84% 0.00 in
04:39 18.3 °F 14.3 °F 30.56 in WNW 5.0 mph 11.0 mph 84% 0.00 in
04:44 18.1 °F 13.8 °F 30.56 in West 8.0 mph 8.0 mph 83% 0.00 in
04:49 18.2 °F 13.9 °F 30.57 in WNW 3.0 mph 10.0 mph 83% 0.00 in
04:54 18.3 °F 14.0 °F 30.57 in West 5.0 mph 10.0 mph 83% 0.00 in
04:59 18.4 °F 13.8 °F 30.57 in WNW 3.0 mph 8.0 mph 82% 0.00 in
05:04 18.6 °F 13.7 °F 30.57 in WNW 3.0 mph 6.0 mph 81% 0.00 in
05:09 18.8 °F 13.7 °F 30.57 in WNW 5.0 mph 9.0 mph 80% 0.00 in
05:14 18.9 °F 13.2 °F 30.57 in West 7.0 mph 10.0 mph 78% 0.00 in
05:19 19.0 °F 13.0 °F 30.57 in WNW 5.0 mph 12.0 mph 77% 0.00 in
05:24 19.1 °F 13.1 °F 30.57 in West 5.0 mph 12.0 mph 77% 0.00 in
05:29 19.0 °F 13.0 °F 30.57 in West 5.0 mph 9.0 mph 77% 0.00 in
05:34 19.0 °F 13.0 °F 30.57 in WNW 5.0 mph 9.0 mph 77% 0.00 in
05:39 19.0 °F 13.0 °F 30.57 in WNW 4.0 mph 8.0 mph 77% 0.00 in
05:44 19.1 °F 12.8 °F 30.57 in WNW 5.0 mph 9.0 mph 76% 0.00 in
05:49 19.2 °F 12.6 °F 30.58 in WNW 4.0 mph 6.0 mph 75% 0.00 in
05:54 19.3 °F 12.4 °F 30.58 in NW 3.0 mph 6.0 mph 74% 0.00 in
05:59 19.2 °F 11.6 °F 30.58 in WSW 9.0 mph 12.0 mph 72% 0.00 in
06:04 19.0 °F 11.8 °F 30.58 in NW 2.0 mph 12.0 mph 73% 0.00 in
06:09 18.8 °F 12.2 °F 30.58 in NNW 4.0 mph 11.0 mph 75% 0.00 in
06:14 18.5 °F 12.8 °F 30.59 in NNW 5.0 mph 11.0 mph 78% 0.00 in
06:19 18.2 °F 13.1 °F 30.59 in NW 5.0 mph 8.0 mph 80% 0.00 in
06:24 18.1 °F 13.3 °F 30.59 in NW 4.0 mph 9.0 mph 81% 0.00 in
06:29 18.1 °F 13.3 °F 30.59 in NW 4.0 mph 9.0 mph 81% 0.00 in
06:34 18.2 °F 13.1 °F 30.59 in NW 4.0 mph 10.0 mph 80% 0.00 in
06:39 18.3 °F 13.2 °F 30.60 in NNW 5.0 mph 12.0 mph 80% 0.00 in
06:44 17.5 °F 12.7 °F 30.61 in NNE 4.0 mph 10.0 mph 81% 0.00 in
06:49 16.7 °F 12.4 °F 30.61 in NNW 6.0 mph 7.0 mph 83% 0.00 in
06:54 16.3 °F 12.3 °F 30.61 in North 6.0 mph 8.0 mph 84% 0.00 in
06:59 16.0 °F 12.0 °F 30.62 in North 5.0 mph 10.0 mph 84% 0.00 in
07:04 15.8 °F 11.8 °F 30.62 in North 5.0 mph 10.0 mph 84% 0.00 in
07:09 15.5 °F 11.5 °F 30.63 in North 6.0 mph 14.0 mph 84% 0.00 in
07:14 15.4 °F 11.2 °F 30.63 in NNE 4.0 mph 10.0 mph 83% 0.00 in
07:19 15.3 °F 10.8 °F 30.63 in NNW 10.0 mph 13.0 mph 82% 0.00 in
07:24 15.2 °F 10.4 °F 30.64 in NNW 3.0 mph 17.0 mph 81% 0.00 in
07:29 15.3 °F 10.2 °F 30.64 in North 6.0 mph 17.0 mph 80% 0.00 in
07:34 15.4 °F 10.1 °F 30.64 in North 5.0 mph 14.0 mph 79% 0.00 in
07:39 15.5 °F 9.6 °F 30.65 in North 5.0 mph 14.0 mph 77% 0.00 in
07:44 15.4 °F 9.2 °F 30.65 in North 5.0 mph 12.0 mph 76% 0.00 in
07:49 15.4 °F 8.9 °F 30.65 in NNW 4.0 mph 10.0 mph 75% 0.00 in
07:54 15.4 °F 8.9 °F 30.66 in North 4.0 mph 8.0 mph 75% 0.00 in
07:59 15.4 °F 8.9 °F 30.66 in North 4.0 mph 13.0 mph 75% 0.00 in
08:04 15.5 °F 9.0 °F 30.66 in North 5.0 mph 13.0 mph 75% 0.00 in
08:09 15.5 °F 9.0 °F 30.66 in North 4.0 mph 10.0 mph 75% 0.00 in
08:14 15.6 °F 9.4 °F 30.67 in North 4.0 mph 10.0 mph 76% 0.00 in
08:19 15.9 °F 9.7 °F 30.67 in North 7.0 mph 9.0 mph 76% 0.00 in
08:24 16.0 °F 9.5 °F 30.67 in North 5.0 mph 8.0 mph 75% 0.00 in
08:29 16.1 °F 9.3 °F 30.67 in NNW 3.0 mph 9.0 mph 74% 0.00 in
08:34 16.2 °F 8.8 °F 30.67 in NNW 5.0 mph 11.0 mph 72% 0.00 in
08:39 16.0 °F 8.3 °F 30.68 in NNW 6.0 mph 14.0 mph 71% 0.00 in
08:44 16.1 °F 8.3 °F 30.68 in North 6.0 mph 14.0 mph 71% 0.00 in
08:49 16.2 °F 8.1 °F 30.68 in North 5.0 mph 9.0 mph 70% 0.00 in
08:59 16.8 °F 8.7 °F 30.69 in NNE 6.0 mph 8.0 mph 70% 0.00 in
09:04 16.8 °F 8.4 °F 30.69 in WNW 4.0 mph 10.0 mph 69% 0.00 in
09:09 16.9 °F 8.5 °F 30.69 in North 5.0 mph 10.0 mph 69% 0.00 in
09:14 17.2 °F 8.8 °F 30.69 in NNW 5.0 mph 13.0 mph 69% 0.00 in
09:19 16.9 °F 8.2 °F 30.70 in NNW 6.0 mph 13.0 mph 68% 0.00 in
09:24 16.4 °F 7.7 °F 30.70 in NNW 6.0 mph 14.0 mph 68% 0.00 in
09:29 16.3 °F 7.6 °F 30.70 in NNW 5.0 mph 12.0 mph 68% 0.00 in
09:34 16.7 °F 8.0 °F 30.71 in NNW 6.0 mph 11.0 mph 68% 0.00 in
09:39 16.5 °F 7.8 °F 30.71 in North 5.0 mph 13.0 mph 68% 0.00 in
09:44 16.4 °F 7.7 °F 30.71 in North 5.0 mph 13.0 mph 68% 0.00 in
09:49 16.7 °F 8.0 °F 30.71 in North 4.0 mph 9.0 mph 68% 0.00 in
09:54 16.1 °F 6.7 °F 30.72 in NNW 8.0 mph 11.0 mph 66% 0.00 in
09:59 16.2 °F 7.2 °F 30.72 in NNE 4.0 mph 10.0 mph 67% 0.00 in
10:04 16.6 °F 7.5 °F 30.72 in NNW 4.0 mph 11.0 mph 67% 0.00 in
10:09 16.8 °F 7.7 °F 30.72 in NNE 3.0 mph 7.0 mph 67% 0.00 in
10:14 16.6 °F 7.2 °F 30.72 in NNE 5.0 mph 12.0 mph 66% 0.00 in
10:19 16.8 °F 7.4 °F 30.72 in North 5.0 mph 12.0 mph 66% 0.00 in
10:24 16.9 °F 6.8 °F 30.73 in North 5.0 mph 10.0 mph 64% 0.00 in
10:29 16.8 °F 7.1 °F 30.73 in North 6.0 mph 12.0 mph 65% 0.00 in
10:34 17.1 °F 7.3 °F 30.73 in NNW 6.0 mph 9.0 mph 65% 0.00 in
10:39 17.3 °F 7.5 °F 30.73 in North 10.0 mph 10.0 mph 65% 0.00 in
10:44 17.6 °F 7.8 °F 30.73 in North 5.0 mph 12.0 mph 65% 0.00 in
10:49 16.7 °F 5.9 °F 30.74 in North 6.0 mph 15.0 mph 62% 0.00 in
10:54 17.0 °F 6.9 °F 30.73 in North 5.0 mph 8.0 mph 64% 0.00 in
10:59 17.5 °F 7.0 °F 30.74 in NNE 7.0 mph 10.0 mph 63% 0.00 in
11:04 17.4 °F 7.6 °F 30.74 in North 9.0 mph 11.0 mph 65% 0.00 in
11:09 18.2 °F 8.4 °F 30.74 in NNE 6.0 mph 13.0 mph 65% 0.00 in
11:14 18.1 °F 6.5 °F 30.74 in NNW 5.0 mph 8.0 mph 60% 0.00 in
11:19 18.9 °F 8.4 °F 30.74 in NNW 4.0 mph 8.0 mph 63% 0.00 in
11:24 18.1 °F 7.3 °F 30.74 in NNW 6.0 mph 12.0 mph 62% 0.00 in
11:29 18.0 °F 6.8 °F 30.74 in NNW 6.0 mph 12.0 mph 61% 0.00 in
11:34 17.4 °F 5.9 °F 30.74 in NNW 5.0 mph 14.0 mph 60% 0.00 in
11:39 17.4 °F 4.7 °F 30.74 in NNW 5.0 mph 14.0 mph 57% 0.00 in
11:44 17.5 °F 5.6 °F 30.74 in NW 8.0 mph 10.0 mph 59% 0.00 in
11:49 17.5 °F 5.6 °F 30.75 in NNW 6.0 mph 14.0 mph 59% 0.00 in
11:54 17.3 °F 5.0 °F 30.74 in NNW 6.0 mph 14.0 mph 58% 0.00 in
11:59 17.6 °F 4.5 °F 30.74 in North 3.0 mph 9.0 mph 56% 0.00 in
12:04 18.5 °F 7.6 °F 30.74 in North 8.0 mph 11.0 mph 62% 0.00 in
12:09 17.8 °F 3.9 °F 30.74 in North 5.0 mph 11.0 mph 54% 0.00 in
12:14 18.3 °F 5.6 °F 30.74 in NNW 6.0 mph 11.0 mph 57% 0.00 in
12:19 17.9 °F 4.8 °F 30.74 in NNE 3.0 mph 10.0 mph 56% 0.00 in
12:24 18.4 °F 5.3 °F 30.75 in North 5.0 mph 10.0 mph 56% 0.00 in
12:29 18.6 °F 5.1 °F 30.75 in NNW 5.0 mph 11.0 mph 55% 0.00 in
12:34 17.6 °F 2.1 °F 30.75 in NNW 5.0 mph 11.0 mph 50% 0.00 in
12:39 17.9 °F 4.8 °F 30.75 in NNW 6.0 mph 12.0 mph 56% 0.00 in
12:44 18.5 °F 6.2 °F 30.75 in North 3.0 mph 9.0 mph 58% 0.00 in
12:49 18.5 °F 5.4 °F 30.74 in NNW 2.0 mph 7.0 mph 56% 0.00 in
12:54 18.6 °F 6.3 °F 30.74 in NW 7.0 mph 10.0 mph 58% 0.00 in
12:59 18.2 °F 5.9 °F 30.74 in NNW 5.0 mph 10.0 mph 58% 0.00 in
13:04 18.1 °F 5.4 °F 30.74 in NNW 5.0 mph 11.0 mph 57% 0.00 in
13:09 18.5 °F 4.2 °F 30.74 in NNW 5.0 mph 11.0 mph 53% 0.00 in
13:14 18.4 °F 6.4 °F 30.74 in NW 3.0 mph 11.0 mph 59% 0.00 in
13:19 19.1 °F 4.8 °F 30.74 in WNW 6.0 mph 12.0 mph 53% 0.00 in
13:24 19.1 °F 5.6 °F 30.74 in NW 2.0 mph 8.0 mph 55% 0.00 in
13:29 19.9 °F 6.3 °F 30.74 in NW 8.0 mph 10.0 mph 55% 0.00 in
13:34 19.7 °F 6.1 °F 30.74 in NW 5.0 mph 10.0 mph 55% 0.00 in
13:39 19.2 °F 4.0 °F 30.74 in NNW 5.0 mph 11.0 mph 51% 0.00 in
13:44 19.2 °F 6.4 °F 30.74 in NNW 5.0 mph 11.0 mph 57% 0.00 in
13:49 19.2 °F 4.8 °F 30.73 in WSW 4.0 mph 11.0 mph 53% 0.00 in
13:54 18.3 °F 3.2 °F 30.73 in NNE 6.0 mph 11.0 mph 51% 0.00 in
13:59 19.1 °F 5.6 °F 30.73 in NNW 8.0 mph 12.0 mph 55% 0.00 in
14:04 20.1 °F 5.3 °F 30.73 in NNW 4.0 mph 12.0 mph 52% 0.00 in
14:09 19.1 °F 3.5 °F 30.73 in NW 4.0 mph 9.0 mph 50% 0.00 in
14:14 19.7 °F 5.3 °F 30.73 in West 4.0 mph 8.0 mph 53% 0.00 in
14:19 19.3 °F 4.5 °F 30.73 in West 6.0 mph 7.0 mph 52% 0.00 in
14:24 20.5 °F 6.9 °F 30.73 in NNW 4.0 mph 7.0 mph 55% 0.00 in
14:29 20.2 °F 4.9 °F 30.73 in WNW 4.0 mph 8.0 mph 51% 0.00 in
14:34 19.9 °F 4.2 °F 30.73 in NW 4.0 mph 9.0 mph 50% 0.00 in
14:39 20.2 °F 3.6 °F 30.73 in NW 5.0 mph 11.0 mph 48% 0.00 in
14:44 20.1 °F 5.3 °F 30.73 in NW 5.0 mph 11.0 mph 52% 0.00 in
14:49 20.5 °F 6.1 °F 30.73 in NW 4.0 mph 10.0 mph 53% 0.00 in
14:54 19.9 °F 5.1 °F 30.73 in NW 3.0 mph 9.0 mph 52% 0.00 in
14:59 20.5 °F 5.2 °F 30.73 in NW 1.0 mph 9.0 mph 51% 0.00 in
15:04 20.3 °F 4.6 °F 30.73 in NW 4.0 mph 10.0 mph 50% 0.00 in
15:09 20.0 °F 3.9 °F 30.73 in NW 4.0 mph 10.0 mph 49% 0.00 in
15:14 19.3 °F 2.3 °F 30.73 in WSW 6.0 mph 11.0 mph 47% 0.00 in
15:19 20.3 °F 4.2 °F 30.73 in NW 2.0 mph 10.0 mph 49% 0.00 in
15:24 20.1 °F 3.1 °F 30.73 in NNW 3.0 mph 9.0 mph 47% 0.00 in
15:29 20.3 °F 4.6 °F 30.73 in NW 4.0 mph 11.0 mph 50% 0.00 in
15:34 19.8 °F 3.7 °F 30.72 in NW 4.0 mph 11.0 mph 49% 0.00 in
15:39 19.5 °F 3.0 °F 30.73 in NW 5.0 mph 10.0 mph 48% 0.00 in
15:44 19.3 °F 3.2 °F 30.73 in North 5.0 mph 10.0 mph 49% 0.00 in
15:49 19.3 °F 2.3 °F 30.73 in NNW 6.0 mph 7.0 mph 47% 0.00 in
15:54 20.1 °F 3.5 °F 30.73 in NNW 1.0 mph 8.0 mph 48% 0.00 in
15:59 20.2 °F 2.7 °F 30.73 in WNW 7.0 mph 8.0 mph 46% 0.00 in
16:04 19.7 °F 2.7 °F 30.73 in NNW 4.0 mph 8.0 mph 47% 0.00 in
16:09 19.8 °F 1.8 °F 30.73 in North 4.0 mph 7.0 mph 45% 0.00 in
16:14 19.5 °F 0.6 °F 30.72 in NE 4.0 mph 7.0 mph 43% 0.00 in
16:19 19.7 °F 0.8 °F 30.72 in NW 6.0 mph 6.0 mph 43% 0.00 in
16:24 19.4 °F -1.0 °F 30.72 in NNE 2.0 mph 7.0 mph 40% 0.00 in
16:29 19.4 °F 0.0 °F 30.72 in NW 4.0 mph 9.0 mph 42% 0.00 in
16:34 19.5 °F 0.6 °F 30.72 in North 4.0 mph 9.0 mph 43% 0.00 in
16:39 19.1 °F 0.2 °F 30.72 in North 4.0 mph 7.0 mph 43% 0.00 in
16:44 19.1 °F 1.2 °F 30.72 in North 4.0 mph 7.0 mph 45% 0.00 in
16:49 19.1 °F 0.7 °F 30.72 in North 4.0 mph 7.0 mph 44% 0.00 in
16:54 18.9 °F 1.0 °F 30.72 in North 3.0 mph 6.0 mph 45% 0.00 in
16:59 18.7 °F 0.4 °F 30.72 in NNW 4.0 mph 8.0 mph 44% 0.00 in
17:04 18.3 °F 0.9 °F 30.72 in NNE 2.0 mph 8.0 mph 46% 0.00 in
17:09 18.3 °F 0.9 °F 30.72 in North 4.0 mph 8.0 mph 46% 0.00 in
17:14 18.1 °F 0.3 °F 30.72 in North 4.0 mph 8.0 mph 45% 0.00 in
17:19 18.2 °F -0.1 °F 30.72 in North 3.0 mph 7.0 mph 44% 0.00 in
17:24 17.9 °F -0.4 °F 30.72 in NW 2.0 mph 7.0 mph 44% 0.00 in
17:29 17.7 °F -0.6 °F 30.72 in NNE 3.0 mph 6.0 mph 44% 0.00 in
17:34 17.5 °F 0.7 °F 30.72 in NNE 4.0 mph 5.0 mph 47% 0.00 in
17:39 17.4 °F 1.0 °F 30.72 in NNE 2.0 mph 5.0 mph 48% 0.00 in
17:44 17.3 °F 1.4 °F 30.72 in North 3.0 mph 6.0 mph 49% 0.00 in
17:49 17.0 °F -0.3 °F 30.72 in North 3.0 mph 6.0 mph 46% 0.00 in
17:54 16.9 °F -0.3 °F 30.72 in NNW 2.0 mph 5.0 mph 46% 0.00 in
17:59 16.7 °F -0.5 °F 30.73 in North 3.0 mph 6.0 mph 46% 0.00 in
18:04 16.4 °F -0.3 °F 30.73 in NNE 2.0 mph 6.0 mph 47% 0.00 in
18:09 16.3 °F -0.9 °F 30.73 in NNW 2.0 mph 6.0 mph 46% 0.00 in
18:14 16.1 °F -0.6 °F 30.73 in NNW 3.0 mph 6.0 mph 47% 0.00 in
18:19 16.2 °F -0.1 °F 30.73 in North 3.0 mph 6.0 mph 48% 0.00 in
18:24 16.0 °F -0.3 °F 30.73 in North 3.0 mph 6.0 mph 48% 0.00 in
18:29 15.8 °F -0.5 °F 30.73 in North 3.0 mph 5.0 mph 48% 0.00 in
18:34 15.7 °F -0.1 °F 30.73 in NNE 2.0 mph 3.0 mph 49% 0.00 in
18:39 15.6 °F 0.2 °F 30.73 in North 2.0 mph 4.0 mph 50% 0.00 in
18:44 15.5 °F 0.1 °F 30.73 in North 2.0 mph 4.0 mph 50% 0.00 in
18:49 15.3 °F 0.0 °F 30.73 in North 2.0 mph 4.0 mph 50% 0.00 in
18:54 15.3 °F 0.4 °F 30.73 in NNE 4.0 mph 5.0 mph 51% 0.00 in
18:59 15.2 °F 0.3 °F 30.73 in North 2.0 mph 5.0 mph 51% 0.00 in
19:04 15.2 °F 0.3 °F 30.74 in North 2.0 mph 4.0 mph 51% 0.00 in
19:09 15.0 °F 0.9 °F 30.74 in Calm   4.0 mph 53% 0.00 in
19:14 14.7 °F 1.0 °F 30.74 in NNW 1.0 mph 4.0 mph 54% 0.00 in
19:19 14.7 °F 1.0 °F 30.74 in NNW 1.0 mph 3.0 mph 54% 0.00 in
19:24 14.5 °F 1.2 °F 30.74 in NNW 2.0 mph 4.0 mph 55% 0.00 in
19:29 14.3 °F 1.1 °F 30.74 in NNW 2.0 mph 4.0 mph 55% 0.00 in
19:34 14.2 °F 1.0 °F 30.74 in NNW 1.0 mph 3.0 mph 55% 0.00 in
19:39 14.1 °F 1.6 °F 30.74 in NNW 2.0 mph 3.0 mph 57% 0.00 in
19:44 14.1 °F 1.3 °F 30.74 in North 1.0 mph 3.0 mph 56% 0.00 in
19:49 14.1 °F 1.3 °F 30.74 in North 2.0 mph 3.0 mph 56% 0.00 in
19:54 14.2 °F 1.4 °F 30.74 in NNE 2.0 mph 3.0 mph 56% 0.00 in
19:59 14.1 °F 1.3 °F 30.74 in NNE 2.0 mph 2.0 mph 56% 0.00 in
20:04 13.9 °F 1.1 °F 30.74 in NE 2.0 mph 4.0 mph 56% 0.00 in
20:09 13.9 °F 1.5 °F 30.75 in NE 1.0 mph 3.0 mph 57% 0.00 in
20:14 13.9 °F 1.5 °F 30.74 in NE 2.0 mph 3.0 mph 57% 0.00 in
20:19 13.9 °F 1.1 °F 30.74 in NE 2.0 mph 3.0 mph 56% 0.00 in
20:24 13.9 °F 1.5 °F 30.74 in NE 1.0 mph 3.0 mph 57% 0.00 in
20:29 13.8 °F 1.4 °F 30.74 in NE 1.0 mph 3.0 mph 57% 0.00 in
20:34 13.8 °F 1.4 °F 30.74 in NE 1.0 mph 3.0 mph 57% 0.00 in
20:39 13.6 °F 1.2 °F 30.74 in Calm   2.0 mph 57% 0.00 in
20:44 13.6 °F 1.2 °F 30.74 in Calm   2.0 mph 57% 0.00 in
20:49 13.6 °F 1.2 °F 30.74 in Calm   3.0 mph 57% 0.00 in
20:54 13.3 °F 1.6 °F 30.74 in ENE 1.0 mph 3.0 mph 59% 0.00 in
20:59 13.2 °F 1.5 °F 30.74 in Calm   1.0 mph 59% 0.00 in
21:04 13.2 °F 1.5 °F 30.74 in ENE 1.0 mph 3.0 mph 59% 0.00 in
21:09 13.2 °F 1.5 °F 30.75 in Calm   2.0 mph 59% 0.00 in
21:14 13.0 °F 1.3 °F 30.74 in Calm     59% 0.00 in
21:19 13.0 °F 1.3 °F 30.75 in East 2.0 mph 3.0 mph 59% 0.00 in
21:24 13.0 °F 1.3 °F 30.75 in East 1.0 mph 3.0 mph 59% 0.00 in
21:29 12.9 °F 2.0 °F 30.75 in Calm   2.0 mph 61% 0.00 in
21:34 12.8 °F 1.9 °F 30.75 in ESE 1.0 mph 2.0 mph 61% 0.00 in
21:39 12.7 °F 1.4 °F 30.75 in ESE 1.0 mph 3.0 mph 60% 0.00 in
21:44 12.7 °F 1.4 °F 30.75 in Calm   1.0 mph 60% 0.00 in
21:49 12.8 °F 1.5 °F 30.75 in Calm     60% 0.00 in
21:54 12.7 °F 1.4 °F 30.75 in Calm   2.0 mph 60% 0.00 in
21:59 12.7 °F 1.4 °F 30.75 in Calm   2.0 mph 60% 0.00 in
22:04 12.7 °F 1.4 °F 30.75 in Calm   2.0 mph 60% 0.00 in
22:09 12.7 °F 1.8 °F 30.75 in Calm     61% 0.00 in
22:14 12.6 °F 1.7 °F 30.75 in Calm     61% 0.00 in
22:19 12.5 °F 1.9 °F 30.75 in SE 1.0 mph 3.0 mph 62% 0.00 in
22:24 12.3 °F 1.7 °F 30.75 in Calm   3.0 mph 62% 0.00 in
22:29 12.2 °F 2.0 °F 30.74 in Calm   2.0 mph 63% 0.00 in
22:34 12.1 °F 1.6 °F 30.74 in SE 1.0 mph 4.0 mph 62% 0.00 in
22:39 12.1 °F 1.6 °F 30.74 in SSE 1.0 mph 3.0 mph 62% 0.00 in
22:44 12.1 °F 1.6 °F 30.74 in SE 1.0 mph 3.0 mph 62% 0.00 in
22:49 12.1 °F 1.6 °F 30.74 in Calm   3.0 mph 62% 0.00 in
22:54 12.0 °F 1.8 °F 30.74 in Calm   1.0 mph 63% 0.00 in
22:59 11.9 °F 1.7 °F 30.74 in ESE 2.0 mph 2.0 mph 63% 0.00 in
23:04 11.9 °F 2.0 °F 30.74 in Calm   3.0 mph 64% 0.00 in
23:09 11.7 °F 1.9 °F 30.74 in ESE 1.0 mph 3.0 mph 64% 0.00 in
23:14 11.7 °F 1.9 °F 30.74 in SE 1.0 mph 3.0 mph 64% 0.00 in
23:19 11.6 °F 1.8 °F 30.74 in SE 1.0 mph 3.0 mph 64% 0.00 in
23:24 11.5 °F 2.0 °F 30.74 in ESE 1.0 mph 3.0 mph 65% 0.00 in
23:29 11.3 °F 2.1 °F 30.74 in ESE 1.0 mph 2.0 mph 66% 0.00 in
23:34 11.2 °F 2.0 °F 30.75 in Calm   2.0 mph 66% 0.00 in
23:39 11.1 °F 1.9 °F 30.75 in SE 1.0 mph 3.0 mph 66% 0.00 in
23:44 11.2 °F 2.0 °F 30.75 in SE 1.0 mph 3.0 mph 66% 0.00 in
23:49 10.8 °F 1.7 °F 30.75 in SE 1.0 mph 3.0 mph 66% 0.00 in
23:54 10.7 °F 2.2 °F 30.75 in Calm     68% 0.00 in
23:59 10.5 °F 2.0 °F 30.75 in Calm     68% 0.00 in
Buffalo, New York, USA
Compliments of Weather Underground - 2.5 mb